createdAt,value
2022-09-28T00:01:20.231Z,93633.97
2022-09-28T00:03:48.694Z,93633.19
2022-09-28T00:06:18.815Z,93628.13
2022-09-28T00:08:46.116Z,93628.94
2022-09-28T00:11:15.718Z,93623.97
2022-09-28T00:13:44.055Z,93623.25
2022-09-28T00:16:17.372Z,93628.41
2022-09-28T00:18:44.994Z,93626.16
2022-09-28T00:21:17.587Z,93625.00
2022-09-28T00:24:04.008Z,93629.38
2022-09-28T00:26:33.034Z,93617.47
2022-09-28T00:29:01.978Z,93617.03
2022-09-28T00:31:32.924Z,93616.59
2022-09-28T00:34:02.002Z,93621.66
2022-09-28T00:36:30.445Z,93615.88
2022-09-28T00:38:58.356Z,93619.81
2022-09-28T00:41:27.189Z,93615.19
2022-09-28T00:44:15.294Z,93619.03
2022-09-28T00:46:42.386Z,93613.19
2022-09-28T00:49:14.937Z,93610.47
2022-09-28T00:51:44.041Z,93608.91
2022-09-28T00:54:12.823Z,93612.75
2022-09-28T00:56:43.165Z,93608.13
2022-09-28T00:59:11.086Z,93604.38
2022-09-28T01:01:38.478Z,93615.59
2022-09-28T01:04:07.342Z,93609.59
2022-09-28T01:06:36.605Z,93609.41
2022-09-28T01:09:07.700Z,93605.59
2022-09-28T01:11:36.233Z,93614.13
2022-09-28T01:14:08.780Z,93607.91
2022-09-28T01:17:15.480Z,93616.06
2022-09-28T01:20:47.517Z,93619.28
2022-09-28T01:23:53.415Z,93622.84
2022-09-28T01:27:14.131Z,93625.31
2022-09-28T01:29:55.515Z,93632.44
2022-09-28T01:32:35.784Z,93630.41
2022-09-28T01:35:11.748Z,93624.91
2022-09-28T01:37:57.112Z,93621.84
2022-09-28T01:40:27.969Z,93618.03
2022-09-28T01:43:01.265Z,93621.06
2022-09-28T01:45:38.765Z,93614.88
2022-09-28T01:48:08.762Z,93612.16
2022-09-28T01:50:41.333Z,93630.28
2022-09-28T01:53:23.354Z,93631.41
2022-09-28T01:55:57.831Z,93628.25
2022-09-28T01:58:34.875Z,93624.75
2022-09-28T02:01:06.522Z,93639.94
2022-09-28T02:03:57.415Z,93644.44
2022-09-28T02:06:36.562Z,93636.00
2022-09-28T02:09:10.799Z,93649.59
2022-09-28T02:11:46.701Z,93641.84
2022-09-28T02:14:17.758Z,93633.41
2022-09-28T02:16:50.770Z,93628.72
2022-09-28T02:19:26.883Z,93629.38
2022-09-28T02:22:33.775Z,93625.13
2022-09-28T02:25:22.694Z,93645.78
2022-09-28T02:27:58.693Z,93636.09
2022-09-28T02:30:27.284Z,93634.75
2022-09-28T02:32:58.246Z,93633.84
2022-09-28T02:35:25.664Z,93635.31
2022-09-28T02:37:55.138Z,93633.84
2022-09-28T02:40:25.610Z,93634.06
2022-09-28T02:43:34.376Z,93639.72
2022-09-28T02:46:43.023Z,93625.22
2022-09-28T02:49:37.513Z,93635.66
2022-09-28T02:52:50.851Z,93626.00
2022-09-28T02:55:48.986Z,93650.75
2022-09-28T02:58:49.358Z,93638.03
2022-09-28T03:02:00.216Z,93641.28
2022-09-28T03:05:06.197Z,93639.28
2022-09-28T03:07:40.146Z,93650.06
2022-09-28T03:10:20.542Z,93649.59
2022-09-28T03:12:49.361Z,93656.78
2022-09-28T03:15:24.566Z,93659.94
2022-09-28T03:17:52.763Z,93673.75
2022-09-28T03:20:20.688Z,93672.97
2022-09-28T03:23:05.910Z,93668.56
2022-09-28T03:25:34.931Z,93682.50
2022-09-28T03:28:02.724Z,93689.25
2022-09-28T03:30:33.079Z,93700.66
2022-09-28T03:33:00.936Z,93680.63
2022-09-28T03:35:30.373Z,93670.06
2022-09-28T03:37:57.626Z,93674.69
2022-09-28T03:40:27.356Z,93679.97
2022-09-28T03:42:54.436Z,93675.34
2022-09-28T03:45:21.733Z,93675.34
2022-09-28T03:47:50.693Z,93681.53
2022-09-28T03:50:19.005Z,93685.34
2022-09-28T03:52:46.122Z,93674.00
2022-09-28T03:55:13.153Z,93680.19
2022-09-28T03:57:40.239Z,93679.84
2022-09-28T04:00:08.238Z,93677.75
2022-09-28T04:02:40.695Z,93672.22
2022-09-28T04:05:09.401Z,93681.81
2022-09-28T04:07:37.938Z,93676.16
2022-09-28T04:10:05.278Z,93677.06
2022-09-28T04:12:32.845Z,93679.97
2022-09-28T04:14:59.823Z,93672.78
2022-09-28T04:17:26.956Z,93683.34
2022-09-28T04:19:54.971Z,93685.13
2022-09-28T04:22:40.105Z,93671.19
2022-09-28T04:25:07.592Z,93668.25
2022-09-28T04:27:53.057Z,93669.63
2022-09-28T04:30:20.501Z,93678.25
2022-09-28T04:32:47.926Z,93682.19
2022-09-28T04:35:15.761Z,93683.31
2022-09-28T04:37:42.815Z,93682.88
2022-09-28T04:40:10.438Z,93693.81
2022-09-28T04:42:38.456Z,93677.28
2022-09-28T04:45:06.566Z,93676.25
2022-09-28T04:47:37.048Z,93675.22
2022-09-28T04:50:29.147Z,93681.06
2022-09-28T04:53:14.773Z,93666.63
2022-09-28T04:55:42.271Z,93674.75
2022-09-28T04:58:09.406Z,93671.25
2022-09-28T05:00:37.057Z,93683.53
2022-09-28T05:03:28.070Z,93672.22
2022-09-28T05:06:28.080Z,93680.75
2022-09-28T05:09:00.739Z,93674.78
2022-09-28T05:11:27.902Z,93683.69
2022-09-28T05:13:55.335Z,93672.97
2022-09-28T05:16:22.348Z,93683.44
2022-09-28T05:19:07.887Z,93683.19
2022-09-28T05:21:35.099Z,93681.63
2022-09-28T05:24:07.887Z,93687.66
2022-09-28T05:26:37.864Z,93695.31
2022-09-28T05:29:07.167Z,93687.66
2022-09-28T05:32:03.663Z,93689.25
2022-09-28T05:34:51.868Z,93692.44
2022-09-28T05:37:25.348Z,93678.47
2022-09-28T05:39:56.007Z,93691.28
2022-09-28T05:42:23.378Z,93691.03
2022-09-28T05:44:50.379Z,93698.47
2022-09-28T05:47:17.433Z,93682.53
2022-09-28T05:49:44.970Z,93686.00
2022-09-28T05:52:12.821Z,93668.53
2022-09-28T05:54:40.131Z,93684.78
2022-09-28T05:57:07.627Z,93678.16
2022-09-28T05:59:37.904Z,93672.88
2022-09-28T06:02:07.392Z,93685.09
2022-09-28T06:04:34.856Z,93686.38
2022-09-28T06:07:01.842Z,93688.31
2022-09-28T06:09:28.847Z,93693.56
2022-09-28T06:12:20.215Z,93707.19
2022-09-28T06:14:55.322Z,93707.38
2022-09-28T06:17:23.766Z,93702.31
2022-09-28T06:20:11.863Z,93715.59
2022-09-28T06:22:56.436Z,93706.94
2022-09-28T06:25:27.735Z,93715.75
2022-09-28T06:27:59.545Z,93714.66
2022-09-28T06:30:28.215Z,93712.38
2022-09-28T06:32:57.349Z,93703.97
2022-09-28T06:35:26.454Z,93714.72
2022-09-28T06:37:54.367Z,93713.84
2022-09-28T06:40:22.870Z,93710.16
2022-09-28T06:42:58.584Z,93703.69
2022-09-28T06:45:44.336Z,93709.47
2022-09-28T06:48:33.048Z,93711.56
2022-09-28T06:51:02.667Z,93722.41
2022-09-28T06:53:59.180Z,93705.97
2022-09-28T06:57:02.007Z,93723.44
2022-09-28T06:59:31.508Z,93706.22
2022-09-28T07:02:00.300Z,93732.53
2022-09-28T07:05:00.088Z,93723.59
2022-09-28T07:07:45.419Z,93714.44
2022-09-28T07:10:50.111Z,93724.31
2022-09-28T07:13:48.647Z,93729.88
2022-09-28T07:16:22.843Z,93755.66
2022-09-28T07:18:54.198Z,93741.28
2022-09-28T07:21:29.091Z,93745.44
2022-09-28T07:24:00.599Z,93738.81
2022-09-28T07:26:50.242Z,93745.50
2022-09-28T07:29:36.110Z,93738.13
2022-09-28T07:32:35.188Z,93732.91
2022-09-28T07:35:16.302Z,93727.81
2022-09-28T07:37:49.810Z,93739.16
2022-09-28T07:40:35.531Z,93745.59
2022-09-28T07:43:07.100Z,93742.88
2022-09-28T07:45:38.406Z,93745.69
2022-09-28T07:48:05.962Z,93740.91
2022-09-28T07:50:42.515Z,93737.75
2022-09-28T07:53:16.050Z,93739.00
2022-09-28T07:56:08.877Z,93728.38
2022-09-28T07:59:02.037Z,93752.22
2022-09-28T08:01:49.680Z,93748.63
2022-09-28T08:04:17.745Z,93742.88
2022-09-28T08:06:48.417Z,93749.69
2022-09-28T08:09:15.783Z,93746.81
2022-09-28T08:12:15.220Z,93740.75
2022-09-28T08:15:02.395Z,93738.53
2022-09-28T08:17:47.912Z,93732.84
2022-09-28T08:20:34.597Z,93732.50
2022-09-28T08:23:06.523Z,93736.88
2022-09-28T08:25:36.975Z,93742.09
2022-09-28T08:28:09.058Z,93739.44
2022-09-28T08:30:45.444Z,93746.97
2022-09-28T08:33:33.309Z,93748.34
2022-09-28T08:36:19.221Z,93750.72
2022-09-28T08:39:06.481Z,93747.66
2022-09-28T08:45:28.579Z,93726.09
2022-09-28T08:48:33.984Z,93734.72
2022-09-28T08:51:31.896Z,93731.25
2022-09-28T08:55:00.327Z,93735.66
2022-09-28T08:57:45.481Z,93739.28
2022-09-28T09:00:22.485Z,93744.06
2022-09-28T09:02:49.985Z,93739.03
2022-09-28T09:05:30.274Z,93734.03
2022-09-28T09:08:39.892Z,93729.78
2022-09-28T09:12:06.105Z,93720.47
2022-09-28T09:14:57.904Z,93728.34
2022-09-28T09:20:50.954Z,93710.03
2022-09-28T09:23:56.793Z,93714.34
2022-09-28T09:26:39.602Z,93717.91
2022-09-28T09:29:44.804Z,93721.81
2022-09-28T09:32:41.337Z,93708.94
2022-09-28T09:49:01.300Z,93686.56
2022-09-28T09:51:48.459Z,93697.44
2022-09-28T09:54:28.775Z,93698.22
2022-09-28T09:57:13.186Z,93698.94
2022-09-28T10:00:04.404Z,93710.50
2022-09-28T10:03:03.378Z,93697.44
2022-09-28T10:05:39.320Z,93701.22
2022-09-28T10:08:18.815Z,93698.34
2022-09-28T10:10:55.211Z,93696.13
2022-09-28T10:13:26.111Z,93695.63
2022-09-28T10:15:55.601Z,93680.59
2022-09-28T10:18:31.714Z,93686.19
2022-09-28T10:21:20.799Z,93680.34
2022-09-28T10:23:58.030Z,93686.16
2022-09-28T10:26:37.842Z,93682.06
2022-09-28T10:29:15.965Z,93682.63
2022-09-28T10:31:51.485Z,93689.44
2022-09-28T10:34:48.724Z,93687.16
2022-09-28T10:37:19.837Z,93676.72
2022-09-28T10:40:40.229Z,93669.53
2022-09-28T10:43:27.729Z,93673.63
2022-09-28T10:46:08.456Z,93661.75
2022-09-28T10:49:01.093Z,93677.97
2022-09-28T10:51:45.404Z,93673.88
2022-09-28T10:54:19.338Z,93672.81
2022-09-28T10:56:49.710Z,93665.75
2022-09-28T10:59:37.415Z,93650.44
2022-09-28T11:02:37.329Z,93659.13
2022-09-28T11:05:22.004Z,93642.09
2022-09-28T11:07:52.038Z,93639.75
2022-09-28T11:10:32.948Z,93644.16
2022-09-28T11:13:10.631Z,93652.59
2022-09-28T11:15:43.937Z,93642.16
2022-09-28T11:18:22.644Z,93644.56
2022-09-28T11:20:50.626Z,93629.47
2022-09-28T11:23:31.269Z,93618.88
2022-09-28T11:26:09.224Z,93645.22
2022-09-28T11:28:38.465Z,93618.63
2022-09-28T11:31:12.607Z,93616.44
2022-09-28T11:34:05.760Z,93618.16
2022-09-28T11:37:37.490Z,93622.50
2022-09-28T11:40:55.516Z,93635.53
2022-09-28T11:44:08.107Z,93621.13
2022-09-28T11:47:33.663Z,93616.69
2022-09-28T11:50:26.389Z,93616.63
2022-09-28T11:53:13.162Z,93614.56
2022-09-28T11:55:54.662Z,93622.72
2022-09-28T11:58:56.004Z,93619.53
2022-09-28T12:01:44.348Z,93622.94
2022-09-28T12:04:37.240Z,93611.41
2022-09-28T12:07:16.418Z,93606.59
2022-09-28T12:09:57.094Z,93602.94
2022-09-28T12:12:32.815Z,93600.22
2022-09-28T12:15:13.181Z,93589.09
2022-09-28T12:17:51.278Z,93595.66
2022-09-28T12:20:31.078Z,93610.59
2022-09-28T12:23:47.275Z,93608.34
2022-09-28T12:26:37.332Z,93598.06
2022-09-28T12:29:24.860Z,93597.22
2022-09-28T12:31:58.541Z,93586.38
2022-09-28T12:34:25.847Z,93604.56
2022-09-28T12:37:37.385Z,93599.63
2022-09-28T12:41:02.848Z,93594.38
2022-09-28T12:44:07.705Z,93605.94
2022-09-28T12:47:18.502Z,93600.38
2022-09-28T12:53:53.325Z,93608.47
2022-09-28T12:57:05.448Z,93608.66
2022-09-28T13:09:20.361Z,93603.22
2022-09-28T13:15:16.131Z,93612.22
2022-09-28T13:21:16.962Z,93607.50
2022-09-28T13:23:50.653Z,93605.03
2022-09-28T13:26:50.497Z,93607.84
2022-09-28T13:29:21.664Z,93612.94
2022-09-28T13:31:56.123Z,93614.19
2022-09-28T13:37:26.443Z,93608.56
2022-09-28T13:39:56.869Z,93620.03
2022-09-28T13:43:00.697Z,93611.88
2022-09-28T13:45:54.470Z,93607.28
2022-09-28T13:48:37.665Z,93616.25
2022-09-28T13:51:49.613Z,93606.28
2022-09-28T13:57:41.876Z,93615.13
2022-09-28T14:00:26.511Z,93613.22
2022-09-28T14:03:04.765Z,93600.78
2022-09-28T14:05:47.049Z,93602.91
2022-09-28T14:08:48.367Z,93600.06
2022-09-28T14:11:59.390Z,93599.13
2022-09-28T14:14:52.275Z,93602.25
2022-09-28T14:17:51.800Z,93599.88
2022-09-28T14:20:21.739Z,93589.44
2022-09-28T14:23:25.798Z,93587.22
2022-09-28T14:29:37.322Z,93588.59
2022-09-28T14:32:21.834Z,93586.69
2022-09-28T14:34:57.401Z,93585.97
2022-09-28T14:37:52.747Z,93580.06
2022-09-28T14:40:50.048Z,93583.91
2022-09-28T14:44:07.759Z,93585.25
2022-09-28T14:46:46.056Z,93579.13
2022-09-28T14:49:48.576Z,93588.38
2022-09-28T14:52:19.519Z,93586.63
2022-09-28T14:54:54.814Z,93578.84
2022-09-28T14:57:29.200Z,93587.31
2022-09-28T14:59:59.874Z,93580.69
2022-09-28T15:02:32.179Z,93574.03
2022-09-28T15:05:24.227Z,93569.94
2022-09-28T15:07:53.754Z,93581.94
2022-09-28T15:10:39.338Z,93582.75
2022-09-28T15:13:19.027Z,93586.16
2022-09-28T15:15:50.636Z,93575.34
2022-09-28T15:19:01.293Z,93583.41
2022-09-28T15:21:32.779Z,93581.09
2022-09-28T15:23:59.905Z,93578.38
2022-09-28T15:26:31.849Z,93574.19
2022-09-28T15:28:59.990Z,93578.41
2022-09-28T15:31:30.603Z,93570.75
2022-09-28T15:34:16.373Z,93580.84
2022-09-28T15:36:47.106Z,93578.00
2022-09-28T15:39:19.128Z,93567.91
2022-09-28T15:41:48.057Z,93578.97
2022-09-28T15:44:33.210Z,93573.34
2022-09-28T15:47:25.340Z,93582.97
2022-09-28T15:50:28.798Z,93585.78
2022-09-28T15:53:04.861Z,93585.88
2022-09-28T15:55:45.353Z,93585.91
2022-09-28T15:58:23.140Z,93584.75
2022-09-28T16:01:11.274Z,93590.53
2022-09-28T16:03:38.368Z,93589.53
2022-09-28T16:06:09.273Z,93596.88
2022-09-28T16:08:42.334Z,93595.53
2022-09-28T16:11:25.034Z,93599.16
2022-09-28T16:14:02.799Z,93597.56
2022-09-28T16:16:34.326Z,93601.09
2022-09-28T16:19:02.457Z,93596.69
2022-09-28T16:21:51.339Z,93600.09
2022-09-28T16:24:21.432Z,93601.91
2022-09-28T16:26:54.782Z,93602.22
2022-09-28T16:29:43.136Z,93607.91
2022-09-28T16:32:49.908Z,93603.41
2022-09-28T16:35:49.512Z,93603.53
2022-09-28T16:38:18.385Z,93598.91
2022-09-28T16:40:50.864Z,93606.03
2022-09-28T16:43:30.465Z,93605.28
2022-09-28T16:46:00.258Z,93613.13
2022-09-28T16:48:29.361Z,93611.59
2022-09-28T16:50:57.482Z,93615.56
2022-09-28T16:53:44.217Z,93616.38
2022-09-28T16:56:12.603Z,93613.69
2022-09-28T16:58:39.923Z,93614.47
2022-09-28T17:01:10.397Z,93607.88
2022-09-28T17:03:37.474Z,93614.19
2022-09-28T17:06:08.743Z,93615.75
2022-09-28T17:08:36.331Z,93609.91
2022-09-28T17:11:24.052Z,93606.41
2022-09-28T17:13:52.018Z,93598.59
2022-09-28T17:16:37.261Z,93604.88
2022-09-28T17:19:22.722Z,93601.38
2022-09-28T17:21:51.217Z,93608.81
2022-09-28T17:24:20.632Z,93615.09
2022-09-28T17:26:50.024Z,93619.00
2022-09-28T17:29:17.533Z,93613.94
2022-09-28T17:31:46.456Z,93619.41
2022-09-28T17:34:18.159Z,93626.06
2022-09-28T17:36:45.611Z,93620.63
2022-09-28T17:39:14.978Z,93620.59
2022-09-28T17:41:41.881Z,93624.50
2022-09-28T17:44:08.928Z,93624.91
2022-09-28T17:46:46.078Z,93626.88
2022-09-28T17:49:13.159Z,93634.69
2022-09-28T17:51:40.075Z,93635.44
2022-09-28T17:54:08.355Z,93639.34
2022-09-28T17:56:36.770Z,93640.13
2022-09-28T17:59:10.335Z,93644.81
2022-09-28T18:01:39.742Z,93646.38
2022-09-28T18:04:09.057Z,93651.06
2022-09-28T18:06:39.673Z,93645.63
2022-09-28T18:09:06.620Z,93654.22
2022-09-28T18:11:33.949Z,93649.09
2022-09-28T18:14:01.166Z,93651.44
2022-09-28T18:16:29.118Z,93655.75
2022-09-28T18:18:56.491Z,93658.09
2022-09-28T18:21:23.461Z,93652.59
2022-09-28T18:23:50.749Z,93657.22
2022-09-28T18:26:19.832Z,93657.22
2022-09-28T18:28:47.295Z,93664.66
2022-09-28T18:31:15.976Z,93672.84
2022-09-28T18:33:43.529Z,93668.53
2022-09-28T18:36:10.571Z,93675.91
2022-09-28T18:38:38.488Z,93667.38
2022-09-28T18:41:17.058Z,93678.66
2022-09-28T18:43:49.655Z,93686.06
2022-09-28T18:46:18.465Z,93679.81
2022-09-28T18:48:46.500Z,93683.31
2022-09-28T18:51:14.108Z,93686.44
2022-09-28T18:53:41.272Z,93686.44
2022-09-28T18:56:10.986Z,93685.25
2022-09-28T18:58:39.896Z,93686.81
2022-09-28T19:01:31.561Z,93686.78
2022-09-28T19:04:00.663Z,93680.53
2022-09-28T19:06:28.679Z,93685.97
2022-09-28T19:08:57.014Z,93687.91
2022-09-28T19:11:24.947Z,93683.63
2022-09-28T19:13:53.854Z,93693.75
2022-09-28T19:16:24.225Z,93692.97
2022-09-28T19:18:53.831Z,93691.03
2022-09-28T19:21:21.548Z,93696.88
2022-09-28T19:23:53.730Z,93691.78
2022-09-28T19:26:24.124Z,93689.44
2022-09-28T19:28:51.070Z,93694.09
2022-09-28T19:31:18.677Z,93703.47
2022-09-28T19:33:46.677Z,93707.72
2022-09-28T19:36:23.822Z,93702.22
2022-09-28T19:38:52.382Z,93709.25
2022-09-28T19:41:44.382Z,93707.28
2022-09-28T19:44:27.670Z,93708.41
2022-09-28T19:47:11.323Z,93705.66
2022-09-28T19:49:40.110Z,93716.13
2022-09-28T19:52:16.128Z,93711.44
2022-09-28T19:54:57.574Z,93716.13
2022-09-28T19:57:26.124Z,93705.97
2022-09-28T19:59:56.691Z,93711.44
2022-09-28T20:02:26.504Z,93702.84
2022-09-28T20:04:53.510Z,93702.00
2022-09-28T20:07:20.978Z,93712.94
2022-09-28T20:09:48.054Z,93709.78
2022-09-28T20:12:14.999Z,93715.25
2022-09-28T20:14:41.901Z,93717.22
2022-09-28T20:17:09.809Z,93706.69
2022-09-28T20:19:36.866Z,93709.78
2022-09-28T20:22:04.272Z,93721.88
2022-09-28T20:24:31.563Z,93718.38
2022-09-28T20:26:59.213Z,93722.69
2022-09-28T20:29:26.878Z,93726.25
2022-09-28T20:31:53.909Z,93726.25
2022-09-28T20:34:20.852Z,93732.41
2022-09-28T20:36:48.416Z,93736.28
2022-09-28T20:39:15.477Z,93738.75
2022-09-28T20:41:42.526Z,93736.50
2022-09-28T20:44:10.083Z,93736.31
2022-09-28T20:46:37.506Z,93742.47
2022-09-28T20:49:05.503Z,93745.06
2022-09-28T20:51:32.533Z,93746.56
2022-09-28T20:54:00.089Z,93744.50
2022-09-28T20:56:37.824Z,93749.91
2022-09-28T20:59:10.482Z,93752.16
2022-09-28T21:01:38.373Z,93755.03
2022-09-28T21:04:07.446Z,93749.50
2022-09-28T21:06:36.621Z,93754.78
2022-09-28T21:09:04.870Z,93761.75
2022-09-28T21:11:33.379Z,93759.00
2022-09-28T21:14:02.340Z,93759.91
2022-09-28T21:16:32.448Z,93755.09
2022-09-28T21:18:59.739Z,93764.00
2022-09-28T21:21:27.365Z,93760.97
2022-09-28T21:23:56.011Z,93768.53
2022-09-28T21:26:25.230Z,93771.16
2022-09-28T21:28:58.079Z,93773.09
2022-09-28T21:31:29.114Z,93769.25
2022-09-28T21:33:57.655Z,93770.72
2022-09-28T21:36:25.133Z,93776.66
2022-09-28T21:38:53.681Z,93776.00
2022-09-28T21:41:20.635Z,93780.13
2022-09-28T21:43:47.537Z,93777.78
2022-09-28T21:46:14.759Z,93778.97
2022-09-28T21:48:41.801Z,93778.13
2022-09-28T21:51:12.814Z,93768.19
2022-09-28T21:53:39.702Z,93769.03
2022-09-28T21:56:10.385Z,93761.50
2022-09-28T21:58:37.624Z,93765.44
2022-09-28T22:01:12.342Z,93761.88
2022-09-28T22:03:39.416Z,93763.56
2022-09-28T22:06:07.255Z,93764.34
2022-09-28T22:08:35.122Z,93765.44
2022-09-28T22:11:08.411Z,93765.44
2022-09-28T22:13:40.513Z,93768.44
2022-09-28T22:16:08.455Z,93766.66
2022-09-28T22:18:35.826Z,93762.84
2022-09-28T22:21:12.875Z,93759.34
2022-09-28T22:23:40.339Z,93765.31
2022-09-28T22:26:13.987Z,93770.03
2022-09-28T22:28:49.637Z,93762.31
2022-09-28T22:31:18.302Z,93762.16
2022-09-28T22:33:48.873Z,93762.84
2022-09-28T22:36:16.830Z,93768.34
2022-09-28T22:38:45.020Z,93766.59
2022-09-28T22:41:12.983Z,93760.84
2022-09-28T22:43:40.126Z,93766.16
2022-09-28T22:46:09.716Z,93752.16
2022-09-28T22:48:36.863Z,93760.31
2022-09-28T22:51:06.479Z,93758.91
2022-09-28T22:53:34.911Z,93760.84
2022-09-28T22:56:05.728Z,93766.28
2022-09-28T22:58:36.986Z,93769.41
2022-09-28T23:01:11.447Z,93773.38
2022-09-28T23:03:42.768Z,93767.66
2022-09-28T23:06:11.076Z,93757.38
2022-09-28T23:08:39.364Z,93768.59
2022-09-28T23:11:06.592Z,93763.88
2022-09-28T23:13:34.049Z,93768.59
2022-09-28T23:16:08.917Z,93765.44
2022-09-28T23:18:38.027Z,93760.28
2022-09-28T23:21:06.848Z,93757.09
2022-09-28T23:23:33.860Z,93760.38
2022-09-28T23:26:09.417Z,93762.38
2022-09-28T23:28:36.316Z,93754.31
2022-09-28T23:31:18.806Z,93758.19
2022-09-28T23:33:46.193Z,93755.91
2022-09-28T23:36:13.449Z,93748.41
2022-09-28T23:38:40.793Z,93747.94
2022-09-28T23:41:08.383Z,93750.22
2022-09-28T23:43:36.432Z,93748.22
2022-09-28T23:46:04.457Z,93742.25
2022-09-28T23:48:31.976Z,93747.06
2022-09-28T23:50:59.045Z,93745.22
2022-09-28T23:53:26.383Z,93740.38
2022-09-28T23:55:54.797Z,93737.13
2022-09-28T23:58:21.930Z,93737.06
